Olds, Iowa
Current Conditions -  °F | °C
As of 7:15 PM on Friday 28 Nov 2014 (Local Time) from KAWG Reporting Station
Haze Haze  
Wind Chill: 21°   Ceiling: Unl
Heat Index: 28°   Visibility: 6mi
Dew Point: 28°   Wind: 7mph
Humidity: 100%   Direction: 120°ESE
Pressure: 29.8"   Gusts: NA
Location:  41.13°N, 91.54°W
Report Text: KAWG 290115Z AUTO 12006KT 6SM BR CLR M02/M02 A2980 RMK AO2
Loading
Personal Weather Stations






























Interactive Weather Map New forecast layout! Learn more

10-Day Weather Forecast

Advertisements
Track Severe Weather on mobile